createdAt,value
2023-01-31T00:02:22.692Z,15.27
2023-01-31T00:06:50.892Z,13.52
2023-01-31T00:10:53.060Z,15.73
2023-01-31T00:14:54.936Z,14.13
2023-01-31T00:18:56.960Z,12.20
2023-01-31T00:22:58.899Z,12.30
2023-01-31T00:27:00.825Z,15.27
2023-01-31T00:31:02.680Z,13.07
2023-01-31T00:35:05.248Z,13.23
2023-01-31T00:39:08.149Z,12.68
2023-01-31T00:43:10.171Z,14.15
2023-01-31T00:47:12.052Z,13.93
2023-01-31T00:51:14.528Z,12.88
2023-01-31T00:55:16.624Z,13.73
2023-01-31T00:59:18.843Z,13.15
2023-01-31T01:03:20.862Z,12.95
2023-01-31T01:07:22.923Z,13.43
2023-01-31T01:11:31.137Z,12.43
2023-01-31T01:19:38.904Z,11.50
2023-01-31T01:23:41.577Z,11.55
2023-01-31T01:27:43.529Z,13.73
2023-01-31T01:31:46.708Z,12.02
2023-01-31T01:35:48.686Z,11.02
2023-01-31T01:39:52.310Z,9.88
2023-01-31T01:43:57.296Z,11.40
2023-01-31T01:48:03.713Z,10.25
2023-01-31T01:52:09.919Z,11.80
2023-01-31T01:56:21.813Z,10.98
2023-01-31T02:00:28.637Z,12.07
2023-01-31T02:04:38.802Z,11.35
2023-01-31T02:08:42.577Z,11.00
2023-01-31T02:12:46.342Z,10.95
2023-01-31T02:16:48.308Z,10.75
2023-01-31T02:21:27.465Z,10.40
2023-01-31T02:25:49.084Z,12.13
2023-01-31T02:30:38.293Z,12.77
2023-01-31T02:35:24.920Z,10.35
2023-01-31T02:39:46.708Z,9.57
2023-01-31T02:44:16.174Z,9.65
2023-01-31T02:48:33.485Z,8.98
2023-01-31T02:52:40.986Z,9.52
2023-01-31T02:56:47.270Z,9.88
2023-01-31T03:00:50.919Z,9.57
2023-01-31T03:04:53.222Z,10.27
2023-01-31T03:09:04.452Z,8.50
2023-01-31T03:13:28.089Z,8.20
2023-01-31T03:17:51.377Z,7.28
2023-01-31T03:22:00.511Z,15.52
2023-01-31T03:26:06.417Z,7.93
2023-01-31T03:30:14.005Z,8.90
2023-01-31T03:34:17.720Z,8.47
2023-01-31T03:38:35.099Z,6.95
2023-01-31T03:42:45.447Z,6.93
2023-01-31T03:46:55.356Z,7.60
2023-01-31T03:51:01.479Z,7.45
2023-01-31T03:55:46.571Z,7.05
2023-01-31T03:59:54.745Z,7.10
2023-01-31T04:08:02.152Z,6.55
2023-01-31T04:12:06.624Z,6.28
2023-01-31T04:16:08.776Z,6.45
2023-01-31T04:20:13.088Z,5.47
2023-01-31T04:24:15.054Z,5.55
2023-01-31T04:28:17.088Z,7.50
2023-01-31T04:32:19.090Z,9.30
2023-01-31T04:36:21.044Z,5.43
2023-01-31T04:40:23.192Z,4.93
2023-01-31T04:44:25.087Z,7.20
2023-01-31T04:48:28.986Z,4.68
2023-01-31T04:52:31.730Z,7.65
2023-01-31T04:56:34.019Z,5.70
2023-01-31T05:00:36.569Z,7.00
2023-01-31T05:04:38.609Z,6.93
2023-01-31T05:08:40.297Z,5.35
2023-01-31T05:12:42.233Z,5.93
2023-01-31T05:16:47.166Z,4.90
2023-01-31T05:20:50.178Z,5.97
2023-01-31T05:24:52.367Z,6.32
2023-01-31T05:28:54.382Z,5.68
2023-01-31T05:32:56.583Z,4.95
2023-01-31T05:36:59.374Z,4.88
2023-01-31T05:41:01.820Z,5.18
2023-01-31T05:45:04.423Z,6.15
2023-01-31T05:49:06.528Z,6.32
2023-01-31T05:53:09.431Z,6.45
2023-01-31T05:57:11.480Z,5.40
2023-01-31T06:01:13.397Z,5.05
2023-01-31T06:05:15.758Z,6.10
2023-01-31T06:09:17.677Z,4.57
2023-01-31T06:13:19.579Z,5.15
2023-01-31T06:17:24.058Z,6.50
2023-01-31T06:21:26.006Z,5.20
2023-01-31T06:25:28.025Z,6.13
2023-01-31T06:29:30.534Z,5.53
2023-01-31T06:33:44.739Z,4.03
2023-01-31T06:37:48.648Z,5.28
2023-01-31T06:41:50.636Z,5.28
2023-01-31T06:45:52.702Z,6.78
2023-01-31T06:49:54.526Z,5.15
2023-01-31T06:53:56.876Z,6.57
2023-01-31T06:57:59.000Z,6.30
2023-01-31T07:02:00.946Z,5.13
2023-01-31T07:06:03.884Z,5.28
2023-01-31T07:10:06.567Z,7.97
2023-01-31T07:14:08.634Z,4.57
2023-01-31T07:18:12.266Z,5.95
2023-01-31T07:22:14.329Z,6.45
2023-01-31T07:26:16.821Z,9.07
2023-01-31T07:30:19.150Z,6.07
2023-01-31T07:34:23.109Z,5.30
2023-01-31T07:38:25.129Z,6.40
2023-01-31T07:42:34.706Z,6.32
2023-01-31T07:46:42.146Z,5.75
2023-01-31T07:50:45.591Z,5.18
2023-01-31T07:54:47.648Z,5.95
2023-01-31T07:58:50.548Z,9.15
2023-01-31T08:03:11.009Z,7.53
2023-01-31T08:07:13.003Z,6.47
2023-01-31T08:11:15.212Z,6.13
2023-01-31T08:15:17.206Z,5.28
2023-01-31T08:19:19.204Z,5.28
2023-01-31T08:23:21.117Z,5.65
2023-01-31T08:27:23.120Z,3.72
2023-01-31T08:31:26.762Z,5.43
2023-01-31T08:35:29.297Z,7.63
2023-01-31T08:39:31.373Z,5.03
2023-01-31T08:43:42.268Z,4.60
2023-01-31T08:47:47.895Z,5.65
2023-01-31T08:51:49.871Z,4.57
2023-01-31T08:55:51.880Z,3.95
2023-01-31T08:59:53.900Z,4.35
2023-01-31T09:03:57.315Z,4.68
2023-01-31T09:07:59.480Z,4.13
2023-01-31T09:12:03.685Z,5.05
2023-01-31T09:16:11.364Z,5.85
2023-01-31T09:20:13.404Z,4.20
2023-01-31T09:24:15.463Z,3.92
2023-01-31T09:28:17.507Z,4.03
2023-01-31T09:32:21.263Z,4.32
2023-01-31T09:36:24.900Z,4.45
2023-01-31T09:40:32.490Z,3.70
2023-01-31T09:44:42.102Z,5.07
2023-01-31T09:48:48.082Z,4.13
2023-01-31T09:52:50.368Z,4.07
2023-01-31T09:57:01.373Z,5.53
2023-01-31T10:01:19.828Z,6.13
2023-01-31T10:05:39.660Z,5.20
2023-01-31T10:09:51.891Z,3.95
2023-01-31T10:13:58.606Z,4.00
2023-01-31T10:18:09.397Z,4.05
2023-01-31T10:22:19.303Z,3.90
2023-01-31T10:26:30.369Z,4.32
2023-01-31T10:30:51.944Z,5.55
2023-01-31T10:34:59.101Z,4.80
2023-01-31T10:39:07.570Z,4.63
2023-01-31T10:47:31.523Z,4.20
2023-01-31T10:51:52.807Z,5.03
2023-01-31T10:56:04.226Z,3.40
2023-01-31T11:00:07.309Z,3.38
2023-01-31T11:04:24.343Z,3.60
2023-01-31T11:08:53.428Z,5.72
2023-01-31T11:13:01.908Z,4.80
2023-01-31T11:17:14.814Z,3.67
2023-01-31T11:21:24.685Z,4.05
2023-01-31T11:25:28.756Z,3.80
2023-01-31T11:29:38.141Z,3.58
2023-01-31T11:33:45.188Z,3.50
2023-01-31T11:37:54.241Z,3.63
2023-01-31T11:41:56.341Z,4.43
2023-01-31T11:46:04.189Z,4.43
2023-01-31T11:50:07.414Z,4.75
2023-01-31T11:54:18.290Z,4.00
2023-01-31T11:58:32.246Z,3.85
2023-01-31T12:02:41.741Z,3.53
2023-01-31T12:06:56.673Z,3.58
2023-01-31T12:11:00.169Z,3.50
2023-01-31T12:15:14.980Z,4.25
2023-01-31T12:19:30.160Z,4.38
2023-01-31T12:23:50.568Z,3.92
2023-01-31T12:28:17.436Z,4.18
2023-01-31T12:32:53.486Z,3.88
2023-01-31T12:37:22.085Z,4.88
2023-01-31T12:41:39.482Z,3.10
2023-01-31T12:45:46.228Z,3.05
2023-01-31T12:49:57.667Z,4.30
2023-01-31T12:54:16.769Z,4.97
2023-01-31T13:03:00.021Z,6.60
2023-01-31T13:07:12.652Z,4.65
2023-01-31T13:11:26.789Z,7.07
2023-01-31T13:15:42.412Z,6.45
2023-01-31T13:19:53.655Z,5.45
2023-01-31T13:24:01.941Z,6.85
2023-01-31T13:28:32.245Z,4.63
2023-01-31T13:32:48.557Z,4.75
2023-01-31T13:37:02.105Z,4.63
2023-01-31T13:41:05.350Z,4.50
2023-01-31T13:45:11.167Z,4.10
2023-01-31T13:49:48.690Z,4.47
2023-01-31T13:53:56.245Z,4.03
2023-01-31T13:58:05.059Z,3.67
2023-01-31T14:02:18.243Z,5.22
2023-01-31T14:06:20.251Z,5.65
2023-01-31T14:10:29.105Z,4.60
2023-01-31T14:14:37.391Z,5.75
2023-01-31T14:18:44.637Z,5.43
2023-01-31T14:23:24.970Z,5.73
2023-01-31T14:27:42.898Z,6.13
2023-01-31T14:31:46.889Z,7.73
2023-01-31T14:36:19.506Z,5.75
2023-01-31T14:40:30.475Z,6.05
2023-01-31T14:44:51.859Z,6.22
2023-01-31T14:49:09.191Z,6.80
2023-01-31T14:53:41.400Z,6.20
2023-01-31T14:57:46.722Z,6.07
2023-01-31T15:01:49.220Z,9.63
2023-01-31T15:06:09.237Z,10.82
2023-01-31T15:10:49.901Z,8.85
2023-01-31T15:14:52.469Z,13.52
2023-01-31T15:19:01.309Z,12.18
2023-01-31T15:23:09.006Z,11.48
2023-01-31T15:27:19.477Z,12.52
2023-01-31T15:31:41.099Z,13.90
2023-01-31T15:35:53.258Z,15.13
2023-01-31T15:40:01.142Z,11.57
2023-01-31T15:44:22.692Z,11.73
2023-01-31T15:48:24.662Z,9.70
2023-01-31T15:52:28.474Z,13.43
2023-01-31T15:56:30.647Z,8.80
2023-01-31T16:00:35.619Z,9.55
2023-01-31T16:04:40.209Z,9.65
2023-01-31T16:08:42.195Z,12.93
2023-01-31T16:12:48.646Z,10.57
2023-01-31T16:16:55.804Z,12.93
2023-01-31T16:20:58.018Z,10.30
2023-01-31T16:25:02.617Z,10.15
2023-01-31T16:29:10.523Z,10.45
2023-01-31T16:33:23.170Z,9.95
2023-01-31T16:37:43.352Z,10.48
2023-01-31T16:41:52.114Z,13.07
2023-01-31T16:45:56.896Z,10.75
2023-01-31T16:50:42.397Z,14.10
2023-01-31T16:54:53.608Z,14.35
2023-01-31T16:58:59.317Z,12.45
2023-01-31T17:03:02.290Z,9.85
2023-01-31T17:07:06.578Z,11.82
2023-01-31T17:11:16.586Z,9.98
2023-01-31T17:15:26.023Z,9.73
2023-01-31T17:19:29.517Z,9.50
2023-01-31T17:23:31.812Z,10.27
2023-01-31T17:27:34.114Z,10.25
2023-01-31T17:31:36.251Z,10.32
2023-01-31T17:35:40.816Z,8.68
2023-01-31T17:39:43.412Z,9.77
2023-01-31T17:43:45.667Z,12.07
2023-01-31T17:47:48.039Z,9.45
2023-01-31T17:51:50.241Z,9.40
2023-01-31T17:55:52.444Z,10.07
2023-01-31T17:59:54.508Z,9.48
2023-01-31T18:03:58.320Z,9.73
2023-01-31T18:08:00.896Z,13.15
2023-01-31T18:12:03.065Z,10.25
2023-01-31T18:16:13.309Z,17.65
2023-01-31T18:20:17.335Z,11.07
2023-01-31T18:24:20.259Z,10.13
2023-01-31T18:28:22.703Z,11.10
2023-01-31T18:32:24.813Z,12.52
2023-01-31T18:36:27.073Z,12.13
2023-01-31T18:40:29.794Z,10.40
2023-01-31T18:44:32.640Z,9.75
2023-01-31T18:48:37.321Z,13.40
2023-01-31T18:52:43.840Z,13.27
2023-01-31T18:56:45.955Z,12.07
2023-01-31T19:00:48.179Z,11.52
2023-01-31T19:04:50.401Z,16.42
2023-01-31T19:08:54.918Z,13.80
2023-01-31T19:12:57.049Z,17.17
2023-01-31T19:16:59.623Z,16.50
2023-01-31T19:21:01.677Z,17.50
2023-01-31T19:25:05.502Z,15.85
2023-01-31T19:29:09.774Z,18.98
2023-01-31T19:33:12.012Z,19.50
2023-01-31T19:37:14.046Z,18.60
2023-01-31T19:41:22.140Z,18.60
2023-01-31T19:45:24.409Z,20.50
2023-01-31T19:49:26.655Z,19.23
2023-01-31T19:53:29.691Z,28.73
2023-01-31T19:57:31.863Z,22.38
2023-01-31T20:01:33.999Z,20.58
2023-01-31T20:05:36.218Z,19.92
2023-01-31T20:09:38.143Z,19.85
2023-01-31T20:13:40.241Z,21.00
2023-01-31T20:17:42.376Z,18.88
2023-01-31T20:21:45.634Z,19.45
2023-01-31T20:25:50.164Z,17.95
2023-01-31T20:29:52.454Z,16.85
2023-01-31T20:33:54.877Z,15.90
2023-01-31T20:37:57.009Z,15.27
2023-01-31T20:41:59.043Z,17.50
2023-01-31T20:46:03.071Z,17.60
2023-01-31T20:50:05.510Z,19.38
2023-01-31T20:54:07.563Z,18.58
2023-01-31T20:58:09.540Z,17.10
2023-01-31T21:02:11.911Z,18.67
2023-01-31T21:06:13.924Z,19.33
2023-01-31T21:10:16.127Z,17.80
2023-01-31T21:14:19.154Z,17.98
2023-01-31T21:18:22.625Z,18.48
2023-01-31T21:22:24.585Z,18.42
2023-01-31T21:26:27.271Z,18.35
2023-01-31T21:30:29.672Z,18.83
2023-01-31T21:34:31.601Z,17.20
2023-01-31T21:38:33.584Z,18.77
2023-01-31T21:42:35.733Z,18.63
2023-01-31T21:46:37.891Z,20.13
2023-01-31T21:50:39.853Z,23.55
2023-01-31T21:54:41.842Z,21.35
2023-01-31T21:58:44.549Z,27.65
2023-01-31T22:02:51.463Z,44.22
2023-01-31T22:06:53.917Z,23.25
2023-01-31T22:11:03.796Z,23.52
2023-01-31T22:15:05.880Z,18.27
2023-01-31T22:19:09.505Z,21.63
2023-01-31T22:23:11.482Z,22.05
2023-01-31T22:27:13.641Z,22.33
2023-01-31T22:31:15.982Z,20.02
2023-01-31T22:35:17.959Z,21.17
2023-01-31T22:39:19.953Z,23.00
2023-01-31T22:43:21.894Z,22.60
2023-01-31T22:47:24.932Z,21.17
2023-01-31T22:51:28.695Z,21.08
2023-01-31T22:55:30.777Z,35.38
2023-01-31T22:59:32.858Z,22.42
2023-01-31T23:03:34.997Z,22.35
2023-01-31T23:07:36.678Z,27.55
2023-01-31T23:11:38.928Z,21.60
2023-01-31T23:15:40.964Z,22.40
2023-01-31T23:19:43.027Z,23.27
2023-01-31T23:23:46.029Z,28.52
2023-01-31T23:27:48.525Z,24.45
2023-01-31T23:31:50.521Z,27.60
2023-01-31T23:35:52.898Z,27.20
2023-01-31T23:39:54.876Z,28.30
2023-01-31T23:43:56.826Z,28.50
2023-01-31T23:47:58.858Z,26.27
2023-01-31T23:52:00.806Z,29.70
2023-01-31T23:56:02.748Z,24.98
